Time;durP1;ratioP1;P1;durP2;ratioP2;P2;SDS_P1;SDS_P2;PMS_P1;PMS_P2;Temp;Humidity;BMP_temperature;BMP_pressure;BME280_temperature;BME280_humidity;BME280_pressure;Samples;Min_cycle;Max_cycle;Signal;HPM_P1;HPM_P2
2021/05/19 00:00:51;;;;;;;6.20;3.83;;;;;;;8.78;83.74;99150.91;4996321;28;20086;-62
2021/05/19 00:03:21;;;;;;;7.18;4.43;;;;;;;8.77;84.27;99154.31;4995127;28;20077;-64
2021/05/19 00:05:53;;;;;;;9.50;4.55;;;;;;;8.74;83.62;99144.13;4996386;28;20073;-62
2021/05/19 00:08:22;;;;;;;7.72;4.70;;;;;;;8.71;84.29;99157.69;4996473;28;20435;-62
2021/05/19 00:10:54;;;;;;;5.97;3.63;;;;;;;8.75;84.18;99156.00;4996552;28;20042;-62
2021/05/19 00:13:27;;;;;;;7.88;4.97;;;;;;;8.80;84.47;99154.31;4995870;28;20050;-64
2021/05/19 00:15:59;;;;;;;8.10;4.60;;;;;;;8.71;84.51;99142.44;4996306;28;20504;-62
2021/05/19 00:18:29;;;;;;;9.23;5.28;;;;;;;8.73;83.90;99143.25;4995417;28;20046;-62
2021/05/19 00:21:01;;;;;;;7.70;4.35;;;;;;;8.73;84.45;99152.63;4995714;28;20128;-64
2021/05/19 00:23:34;;;;;;;7.88;4.57;;;;;;;8.65;84.56;99145.00;4995804;28;20147;-62
2021/05/19 00:26:06;;;;;;;7.55;4.57;;;;;;;8.64;84.45;99144.97;4995607;28;20054;-62
2021/05/19 00:28:35;;;;;;;7.63;4.75;;;;;;;8.47;84.33;99139.91;4995814;28;20082;-64
2021/05/19 00:31:11;;;;;;;7.00;4.45;;;;;;;8.33;84.14;99140.78;4995839;28;20121;-64
2021/05/19 00:33:45;;;;;;;6.03;4.03;;;;;;;8.43;84.26;99152.66;4995602;28;20409;-64
2021/05/19 00:36:17;;;;;;;6.43;4.35;;;;;;;8.36;84.83;99151.81;4995431;28;20052;-62
2021/05/19 00:38:49;;;;;;;7.38;4.35;;;;;;;8.32;84.44;99149.28;4995591;28;20412;-64
2021/05/19 00:41:24;;;;;;;6.75;4.55;;;;;;;8.21;84.82;99150.91;4995528;28;20050;-62
2021/05/19 00:44:03;;;;;;;9.18;5.65;;;;;;;8.33;84.55;99143.31;4995451;28;20061;-62
2021/05/19 00:46:35;;;;;;;7.15;4.68;;;;;;;8.41;84.51;99144.16;4995401;28;20506;-62
2021/05/19 00:49:06;;;;;;;7.18;4.72;;;;;;;8.24;84.13;99144.16;4995095;28;20089;-62
2021/05/19 00:51:38;;;;;;;8.98;4.78;;;;;;;8.22;84.49;99139.91;4995373;28;20096;-62
2021/05/19 00:54:08;;;;;;;6.97;4.18;;;;;;;8.26;84.05;99152.66;4995096;28;20382;-62
2021/05/19 00:56:37;;;;;;;7.15;4.55;;;;;;;8.23;84.60;99154.34;4995217;28;20082;-64
2021/05/19 00:59:06;;;;;;;7.45;4.72;;;;;;;8.28;85.00;99155.22;4995169;28;20518;-64
2021/05/19 01:01:39;;;;;;;6.15;3.72;;;;;;;8.18;84.43;99150.94;4995165;28;20420;-62
2021/05/19 01:04:16;;;;;;;7.53;4.35;;;;;;;7.94;84.09;99142.44;4995072;28;20050;-62
2021/05/19 01:07:21;;;;;;;6.72;4.43;;;;;;;8.00;85.09;99141.59;4993145;28;20060;-63
2021/05/19 01:09:50;;;;;;;7.82;4.30;;;;;;;8.02;84.45;99145.84;4995058;28;20489;-62
2021/05/19 01:12:23;;;;;;;8.02;4.97;;;;;;;8.03;84.95;99127.22;4995183;28;20047;-62
2021/05/19 01:14:56;;;;;;;7.68;4.43;;;;;;;8.25;85.30;99139.94;4994862;28;20444;-62
2021/05/19 01:17:28;;;;;;;7.32;4.75;;;;;;;8.33;85.18;99140.78;4995267;28;20062;-62
2021/05/19 01:20:01;;;;;;;7.22;4.68;;;;;;;8.13;84.15;99149.22;4994839;28;20081;-62
2021/05/19 01:22:34;;;;;;;7.85;4.63;;;;;;;8.07;85.14;99153.47;4994757;28;20061;-62
2021/05/19 01:25:07;;;;;;;7.03;4.80;;;;;;;8.05;85.04;99150.94;4995066;28;20078;-62
2021/05/19 01:27:39;;;;;;;6.00;4.43;;;;;;;7.97;84.24;99150.06;4994751;28;20054;-63
2021/05/19 01:30:12;;;;;;;6.10;3.97;;;;;;;8.00;84.77;99155.16;4994330;28;20493;-62
2021/05/19 01:32:45;;;;;;;8.30;4.38;;;;;;;8.00;84.14;99162.78;4993510;28;20129;-62
2021/05/19 01:35:17;;;;;;;6.78;4.10;;;;;;;7.98;84.99;99154.31;4994340;28;20493;-62
2021/05/19 01:37:50;;;;;;;7.45;4.20;;;;;;;7.97;84.99;99157.69;4994599;28;20105;-63
2021/05/19 01:40:23;;;;;;;9.20;4.55;;;;;;;7.98;84.66;99159.41;4994599;28;20385;-65
2021/05/19 01:42:56;;;;;;;8.60;5.28;;;;;;;8.04;84.97;99154.31;4994772;28;20054;-63
2021/05/19 01:45:54;;;;;;;8.52;4.90;;;;;;;7.97;85.37;99160.22;4934642;29;20114;-63
2021/05/19 01:48:25;;;;;;;8.30;4.07;;;;;;;7.96;85.59;99160.25;4935053;29;20143;-62
2021/05/19 01:50:58;;;;;;;6.13;3.97;;;;;;;7.92;85.21;99164.47;4918787;29;20044;-62
2021/05/19 01:53:29;;;;;;;7.38;3.88;;;;;;;7.78;84.58;99161.06;4934566;29;20494;-62
2021/05/19 01:56:00;;;;;;;7.32;4.13;;;;;;;7.67;84.74;99172.03;4934187;29;20060;-63
2021/05/19 01:58:34;;;;;;;8.88;4.30;;;;;;;7.64;85.37;99167.78;4934539;29;20059;-62
2021/05/19 02:01:07;;;;;;;6.68;4.07;;;;;;;7.69;84.58;99166.13;4918713;29;20377;-62
2021/05/19 02:03:41;;;;;;;5.72;4.07;;;;;;;7.57;84.68;99158.47;4934754;29;20115;-63
2021/05/19 02:06:16;;;;;;;7.35;4.45;;;;;;;7.67;84.37;99172.88;4934435;29;20111;-62
2021/05/19 02:08:49;;;;;;;8.02;4.15;;;;;;;7.62;84.33;99169.50;4934657;29;20056;-63
2021/05/19 02:11:23;;;;;;;7.50;4.45;;;;;;;7.69;84.68;99165.25;4918628;29;20059;-63
2021/05/19 02:13:55;;;;;;;10.32;4.70;;;;;;;7.90;84.89;99163.59;4934402;29;20070;-61
2021/05/19 02:16:27;;;;;;;8.35;4.57;;;;;;;7.93;84.84;99162.78;4934286;29;20135;-63
2021/05/19 02:18:57;;;;;;;7.57;4.30;;;;;;;8.02;85.35;99161.09;4934382;29;20094;-61
2021/05/19 02:21:33;;;;;;;7.15;4.10;;;;;;;7.93;84.66;99165.31;4934385;29;20081;-62
2021/05/19 02:24:14;;;;;;;5.70;3.80;;;;;;;7.74;83.97;99163.59;4974761;28;20097;-63
2021/05/19 02:26:48;;;;;;;6.45;3.72;;;;;;;7.62;84.44;99164.41;4974435;28;20054;-63
2021/05/19 02:29:23;;;;;;;6.88;4.18;;;;;;;7.55;84.65;99157.63;4973370;28;20058;-61
2021/05/19 02:31:55;;;;;;;5.97;4.05;;;;;;;7.51;84.55;99158.44;4974711;28;20061;-63
2021/05/19 02:34:27;;;;;;;6.75;4.22;;;;;;;7.57;84.50;99161.00;4974891;28;20046;-61
2021/05/19 02:37:00;;;;;;;7.63;4.25;;;;;;;7.74;84.91;99163.59;4973446;28;20062;-63
2021/05/19 02:39:34;;;;;;;6.28;4.35;;;;;;;7.91;85.38;99162.78;4974596;28;20090;-61
2021/05/19 02:42:08;;;;;;;7.50;4.90;;;;;;;7.95;84.83;99169.53;4973393;28;20401;-61
2021/05/19 02:44:40;;;;;;;7.78;4.38;;;;;;;7.88;84.65;99162.75;4978295;28;20050;-61
2021/05/19 02:47:12;;;;;;;8.75;4.57;;;;;;;7.86;84.03;99169.53;4978429;28;20051;-63
2021/05/19 02:49:43;;;;;;;9.10;4.53;;;;;;;7.59;84.05;99174.53;4984859;28;20428;-61
2021/05/19 02:52:15;;;;;;;7.78;5.18;;;;;;;7.47;83.85;99173.66;4997577;28;20080;-61
2021/05/19 02:54:52;;;;;;;6.43;4.22;;;;;;;7.39;84.06;99166.84;4997410;28;20047;-61
2021/05/19 02:57:24;;;;;;;7.13;4.15;;;;;;;7.38;83.72;99174.47;4997429;28;20159;-62
2021/05/19 02:59:56;;;;;;;6.85;3.95;;;;;;;7.33;84.27;99181.22;4997145;28;20050;-62
2021/05/19 03:02:28;;;;;;;5.82;3.60;;;;;;;7.22;83.92;99177.81;4997398;28;20081;-61
2021/05/19 03:05:00;;;;;;;5.35;3.33;;;;;;;7.18;84.18;99176.94;4997649;28;20064;-61
2021/05/19 03:07:32;;;;;;;6.03;3.83;;;;;;;7.14;84.21;99179.44;4997259;28;20477;-61
2021/05/19 03:10:06;;;;;;;7.97;4.68;;;;;;;7.13;84.47;99182.81;4997248;28;20057;-61
2021/05/19 03:12:35;;;;;;;7.30;4.20;;;;;;;7.24;84.45;99186.28;4998006;28;20469;-61
2021/05/19 03:15:09;;;;;;;4.88;3.15;;;;;;;7.34;84.36;99188.00;4996880;28;20046;-63
2021/05/19 03:17:42;;;;;;;5.95;3.67;;;;;;;7.16;84.33;99191.31;4997037;28;20167;-61
2021/05/19 03:20:16;;;;;;;6.90;4.25;;;;;;;7.07;84.45;99192.94;4997059;28;20496;-61
2021/05/19 03:22:45;;;;;;;7.22;4.50;;;;;;;7.16;84.05;99193.84;4997323;28;20425;-61
2021/05/19 03:25:15;;;;;;;10.33;5.30;;;;;;;7.26;84.71;99192.19;4995814;28;20050;-61
2021/05/19 03:27:47;;;;;;;8.07;4.90;;;;;;;7.33;84.09;99191.38;4996859;28;20124;-62
2021/05/19 03:30:20;;;;;;;7.65;4.38;;;;;;;7.31;84.71;99188.84;4996872;28;20058;-61
2021/05/19 03:32:52;;;;;;;7.63;4.10;;;;;;;7.36;83.96;99186.31;4996859;28;20101;-61
2021/05/19 03:35:21;;;;;;;7.85;4.20;;;;;;;7.50;83.86;99204.13;4996528;28;20050;-63
2021/05/19 03:37:53;;;;;;;7.82;4.47;;;;;;;7.71;84.72;99199.13;4996649;28;20125;-61
2021/05/19 03:40:27;;;;;;;9.10;4.60;;;;;;;7.87;85.01;99201.69;4995589;28;20512;-62
2021/05/19 03:42:57;;;;;;;6.70;4.20;;;;;;;7.97;84.49;99198.34;4996669;28;20070;-61
2021/05/19 03:45:29;;;;;;;6.45;4.40;;;;;;;8.03;84.60;99202.59;4996324;28;20103;-62
2021/05/19 03:48:02;;;;;;;7.95;4.03;;;;;;;8.02;83.78;99190.72;4996338;28;20065;-61
2021/05/19 03:50:34;;;;;;;7.45;3.65;;;;;;;8.10;83.91;99200.06;4996053;28;20050;-61
2021/05/19 03:53:11;;;;;;;5.63;4.15;;;;;;;8.07;82.87;99202.59;4996187;28;20142;-61
2021/05/19 03:55:45;;;;;;;7.35;4.38;;;;;;;8.02;83.34;99200.88;4996185;28;20046;-61
2021/05/19 03:58:17;;;;;;;7.43;4.95;;;;;;;8.18;83.67;99201.78;4996335;28;20073;-62
2021/05/19 04:00:50;;;;;;;9.23;4.47;;;;;;;8.44;83.64;99200.97;4996139;28;20125;-63
2021/05/19 04:03:22;;;;;;;7.07;3.88;;;;;;;8.51;83.58;99201.81;4996261;28;20062;-63
2021/05/19 04:05:54;;;;;;;8.88;4.90;;;;;;;8.57;83.18;99191.63;4996503;28;20100;-63
2021/05/19 04:08:34;;;;;;;9.65;4.15;;;;;;;8.80;83.18;99194.16;4996146;28;20047;-62
2021/05/19 04:11:09;;;;;;;7.25;4.40;;;;;;;8.85;82.84;99200.09;4996119;28;20400;-63
2021/05/19 04:13:38;;;;;;;9.00;4.72;;;;;;;8.96;82.79;99209.38;4996096;28;20069;-62
2021/05/19 04:16:08;;;;;;;8.50;4.70;;;;;;;9.06;83.08;99211.06;4995967;28;20093;-63
2021/05/19 04:18:37;;;;;;;8.68;4.97;;;;;;;9.17;82.97;99211.88;4995895;28;20050;-62
2021/05/19 04:21:09;;;;;;;6.30;4.47;;;;;;;9.33;82.68;99205.06;4996576;28;20050;-63
2021/05/19 04:23:38;;;;;;;6.38;4.13;;;;;;;9.63;83.23;99211.72;4995880;28;20046;-62
2021/05/19 04:26:11;;;;;;;8.53;5.57;;;;;;;9.95;82.95;99220.06;4995827;28;20054;-63
2021/05/19 04:28:40;;;;;;;9.65;4.72;;;;;;;10.14;82.66;99221.66;4995684;28;20279;-63
2021/05/19 04:31:12;;;;;;;10.60;5.07;;;;;;;10.29;82.22;99220.72;4995982;28;20046;-62
2021/05/19 04:33:41;;;;;;;7.40;4.57;;;;;;;10.30;81.63;99227.50;4995671;28;20563;-63
2021/05/19 04:36:11;;;;;;;7.38;4.53;;;;;;;10.28;80.95;99219.84;4995310;28;20050;-62
2021/05/19 04:38:40;;;;;;;7.25;4.68;;;;;;;10.27;81.25;99205.41;4995505;28;20519;-63
2021/05/19 04:41:10;;;;;;;7.70;4.90;;;;;;;10.28;80.77;99227.50;4995512;28;20512;-64
2021/05/19 04:43:39;;;;;;;7.18;4.50;;;;;;;10.17;80.25;99221.66;4995799;28;20158;-62
2021/05/19 04:46:12;;;;;;;7.65;5.00;;;;;;;10.14;80.51;99220.81;4995353;28;20149;-62
2021/05/19 04:48:41;;;;;;;7.93;5.18;;;;;;;10.06;80.18;99228.47;4995386;28;20058;-63
2021/05/19 04:51:13;;;;;;;8.93;5.60;;;;;;;10.08;80.21;99237.81;4994908;28;20428;-64
2021/05/19 04:53:42;;;;;;;8.45;5.57;;;;;;;10.16;80.26;99230.16;4995229;28;20501;-62
2021/05/19 04:56:15;;;;;;;8.55;5.70;;;;;;;10.19;79.97;99227.59;4995000;28;20046;-62
2021/05/19 04:58:44;;;;;;;7.38;5.10;;;;;;;10.28;80.21;99227.50;4994971;28;20483;-64
2021/05/19 05:01:16;;;;;;;9.88;5.22;;;;;;;10.24;80.25;99233.50;4995328;28;20401;-61
2021/05/19 05:03:46;;;;;;;8.63;5.30;;;;;;;10.18;80.49;99225.88;4995168;28;20125;-61
2021/05/19 05:06:17;;;;;;;8.93;4.60;;;;;;;10.16;79.93;99229.28;4994469;28;20058;-62
2021/05/19 05:08:47;;;;;;;7.18;5.13;;;;;;;10.20;80.33;99231.00;4995316;28;20272;-64
2021/05/19 05:11:17;;;;;;;9.98;4.57;;;;;;;10.19;80.03;99230.13;4994838;28;20093;-63
2021/05/19 05:13:46;;;;;;;8.80;5.38;;;;;;;10.12;79.80;99231.03;4994906;28;20060;-63
2021/05/19 05:16:15;;;;;;;7.27;4.00;;;;;;;10.06;80.14;99231.88;4994681;28;20066;-64
2021/05/19 05:18:44;;;;;;;9.48;4.93;;;;;;;9.97;80.34;99215.78;4995039;28;20054;-62
2021/05/19 05:21:13;;;;;;;8.90;4.72;;;;;;;10.02;80.08;99230.22;4994732;28;20073;-61
2021/05/19 05:23:43;;;;;;;6.25;3.88;;;;;;;10.11;80.15;99226.75;4995091;28;20116;-64
2021/05/19 05:26:16;;;;;;;6.40;4.35;;;;;;;10.19;79.83;99230.13;4994485;28;20047;-63
2021/05/19 05:28:45;;;;;;;6.20;3.97;;;;;;;10.19;80.16;99229.28;4994720;28;20054;-62
2021/05/19 05:31:17;;;;;;;7.57;4.88;;;;;;;10.27;80.32;99230.91;4994600;28;20050;-62
2021/05/19 05:33:47;;;;;;;7.00;4.10;;;;;;;10.37;80.08;99224.88;4994692;28;20065;-62
2021/05/19 05:36:19;;;;;;;7.13;4.55;;;;;;;10.37;80.16;99230.00;4994978;28;20093;-62
2021/05/19 05:38:48;;;;;;;7.30;4.28;;;;;;;10.47;80.76;99220.56;4994528;28;20042;-64
2021/05/19 05:41:21;;;;;;;8.13;4.18;;;;;;;10.51;80.32;99225.63;4994734;28;20112;-62
2021/05/19 05:43:51;;;;;;;7.15;4.32;;;;;;;10.57;80.25;99228.16;4994530;28;20057;-64
2021/05/19 05:46:23;;;;;;;8.50;4.50;;;;;;;10.70;80.30;99218.69;4994463;28;20578;-62
2021/05/19 05:48:52;;;;;;;6.60;4.30;;;;;;;10.85;80.40;99213.44;4994443;28;20058;-61
2021/05/19 05:51:21;;;;;;;7.27;4.73;;;;;;;11.05;80.54;99210.69;4994390;28;20058;-63
2021/05/19 05:53:51;;;;;;;6.22;3.90;;;;;;;11.30;79.71;99217.22;4994378;28;20125;-62
2021/05/19 05:56:24;;;;;;;6.65;4.25;;;;;;;11.53;79.75;99220.34;4994043;28;20073;-63
2021/05/19 05:58:56;;;;;;;9.55;4.57;;;;;;;11.64;79.57;99223.63;4994402;28;20054;-63
2021/05/19 06:01:26;;;;;;;6.00;3.80;;;;;;;11.64;78.81;99223.63;4994317;28;20062;-65
2021/05/19 06:04:01;;;;;;;7.55;4.40;;;;;;;11.69;78.81;99221.88;4994256;28;20046;-65
2021/05/19 06:06:33;;;;;;;7.63;4.68;;;;;;;11.88;78.86;99223.34;4994311;28;20058;-65
2021/05/19 06:09:05;;;;;;;7.80;4.30;;;;;;;11.95;78.06;99222.38;4993950;28;20054;-65
2021/05/19 06:11:38;;;;;;;6.30;4.10;;;;;;;12.05;77.56;99221.41;4994196;28;20058;-65
2021/05/19 06:14:07;;;;;;;6.82;4.60;;;;;;;12.10;77.31;99219.63;4994509;28;20068;-64
2021/05/19 06:16:43;;;;;;;6.80;4.75;;;;;;;12.21;77.10;99221.19;4993876;28;20046;-65
2021/05/19 06:19:17;;;;;;;7.38;4.82;;;;;;;12.36;77.13;99215.81;4998252;28;20056;-63
2021/05/19 06:21:49;;;;;;;7.60;4.68;;;;;;;12.33;76.43;99215.88;4997291;28;20109;-64
2021/05/19 06:24:24;;;;;;;6.13;4.20;;;;;;;12.35;76.17;99219.25;4998048;28;20042;-63
2021/05/19 06:26:57;;;;;;;7.05;4.75;;;;;;;12.50;75.97;99213.91;4998282;28;20054;-64
2021/05/19 06:29:29;;;;;;;6.95;4.45;;;;;;;12.61;75.43;99217.13;4997702;28;20054;-63
2021/05/19 06:32:01;;;;;;;8.57;5.32;;;;;;;12.59;75.29;99218.88;4997896;28;20491;-63
2021/05/19 06:34:35;;;;;;;6.07;4.20;;;;;;;12.62;75.12;99214.53;4997903;28;20054;-62
2021/05/19 06:37:07;;;;;;;6.82;4.40;;;;;;;12.65;75.30;99213.66;4997558;28;20050;-64
2021/05/19 06:39:39;;;;;;;6.30;3.50;;;;;;;12.73;75.00;99204.13;4997783;28;20053;-63
2021/05/19 06:42:12;;;;;;;5.28;3.08;;;;;;;12.86;74.47;99210.72;4997667;28;20047;-64
2021/05/19 06:44:45;;;;;;;4.95;3.10;;;;;;;13.03;73.55;99208.69;4997645;28;20527;-62
2021/05/19 06:47:17;;;;;;;5.82;3.60;;;;;;;13.11;73.00;99209.44;4997636;28;20054;-64
2021/05/19 06:49:48;;;;;;;6.35;4.30;;;;;;;13.18;72.95;99205.91;4997506;28;20054;-63
2021/05/19 06:52:21;;;;;;;5.75;3.05;;;;;;;13.32;72.33;99203.06;4997580;28;20054;-62
2021/05/19 06:54:52;;;;;;;6.28;3.40;;;;;;;13.43;71.80;99202.00;4997425;28;20058;-63
2021/05/19 06:57:23;;;;;;;5.32;3.28;;;;;;;13.51;71.37;99198.44;4997084;28;20050;-65
2021/05/19 06:59:52;;;;;;;5.57;3.40;;;;;;;13.61;71.36;99205.03;4997693;28;20090;-63
2021/05/19 07:02:21;;;;;;;5.68;3.10;;;;;;;13.46;70.85;99195.94;4997246;28;20404;-63
2021/05/19 07:04:55;;;;;;;6.38;3.63;;;;;;;13.37;70.44;99191.84;4997324;28;20058;-61
2021/05/19 07:07:24;;;;;;;8.73;3.72;;;;;;;13.41;70.42;99193.47;4997033;28;20085;-62
2021/05/19 07:09:56;;;;;;;10.32;5.40;;;;;;;13.49;70.48;99187.34;4997466;28;20046;-65
2021/05/19 07:12:28;;;;;;;12.32;5.40;;;;;;;13.62;70.63;99186.22;4997384;28;20074;-64
2021/05/19 07:15:00;;;;;;;6.68;3.60;;;;;;;13.68;70.29;99188.66;4997355;28;20151;-65
2021/05/19 07:17:32;;;;;;;6.57;4.05;;;;;;;13.76;69.87;99189.34;4996718;28;20401;-65
2021/05/19 07:20:05;;;;;;;7.65;3.70;;;;;;;13.84;70.17;99192.59;4997306;28;20061;-64
2021/05/19 07:22:37;;;;;;;5.57;3.95;;;;;;;13.88;69.93;99189.06;4997068;28;20061;-64
2021/05/19 07:25:10;;;;;;;5.47;3.42;;;;;;;13.89;69.39;99193.34;4996961;28;20061;-65
2021/05/19 07:27:40;;;;;;;7.80;3.63;;;;;;;13.90;69.46;99192.44;4996502;28;20073;-64
2021/05/19 07:30:10;;;;;;;6.40;3.45;;;;;;;13.86;69.65;99178.00;4996377;28;20467;-64
2021/05/19 07:32:39;;;;;;;7.05;4.00;;;;;;;13.98;69.61;99196.56;4996815;28;20455;-65
2021/05/19 07:35:14;;;;;;;7.63;3.40;;;;;;;14.01;69.41;99195.63;4979450;28;20130;-63
2021/05/19 07:37:47;;;;;;;8.65;4.18;;;;;;;13.98;69.34;99190.56;4996650;28;20046;-65
2021/05/19 07:40:16;;;;;;;5.65;3.55;;;;;;;14.03;69.57;99183.63;4997012;28;20428;-64
2021/05/19 07:42:49;;;;;;;6.25;3.47;;;;;;;14.16;69.21;99190.13;4996598;28;20054;-65
2021/05/19 07:45:18;;;;;;;7.10;3.88;;;;;;;14.19;69.04;99189.22;4996571;28;20137;-65
2021/05/19 07:47:49;;;;;;;6.82;3.78;;;;;;;14.21;69.68;99197.72;4996555;28;20492;-64
2021/05/19 07:50:20;;;;;;;5.78;3.72;;;;;;;14.13;69.80;99195.38;4996128;28;20047;-65
2021/05/19 07:52:51;;;;;;;6.13;4.25;;;;;;;14.02;70.08;99197.31;4996443;28;20078;-65
2021/05/19 07:55:24;;;;;;;6.30;3.95;;;;;;;13.82;71.19;99195.19;4996339;28;20062;-65
2021/05/19 07:58:01;;;;;;;8.38;4.05;;;;;;;13.79;71.45;99194.41;4995968;28;20408;-64
2021/05/19 08:00:41;;;;;;;5.50;3.75;;;;;;;13.72;71.82;99192.84;4996442;28;20066;-65
2021/05/19 08:03:12;;;;;;;7.55;4.18;;;;;;;13.80;72.01;99186.66;4996019;28;20053;-64
2021/05/19 08:05:43;;;;;;;5.70;3.80;;;;;;;13.91;72.32;99189.03;4995924;28;20125;-65
2021/05/19 08:08:14;;;;;;;5.35;3.85;;;;;;;14.00;72.39;99178.53;4995994;28;20068;-66
2021/05/19 08:10:45;;;;;;;7.03;4.40;;;;;;;14.09;71.98;99189.44;4996127;28;20093;-66
2021/05/19 08:13:17;;;;;;;9.23;5.10;;;;;;;14.11;72.42;99182.53;4995150;28;20061;-63
2021/05/19 08:15:48;;;;;;;10.43;4.70;;;;;;;14.13;72.57;99185.91;4995835;28;20054;-65
2021/05/19 08:18:19;;;;;;;8.73;4.15;;;;;;;13.99;72.20;99177.69;4995897;28;20070;-64
2021/05/19 08:20:48;;;;;;;10.45;4.63;;;;;;;13.96;71.67;99182.06;4995885;28;20058;-63
2021/05/19 08:23:21;;;;;;;9.00;4.88;;;;;;;14.02;72.03;99184.47;4995808;28;20048;-63
2021/05/19 08:25:56;;;;;;;8.15;4.60;;;;;;;14.24;71.77;99182.25;4995726;28;20057;-64
2021/05/19 08:28:26;;;;;;;7.82;4.20;;;;;;;14.39;71.79;99179.38;4995997;28;20054;-64
2021/05/19 08:30:55;;;;;;;7.07;4.53;;;;;;;14.56;71.63;99175.53;4995995;28;20492;-64
2021/05/19 08:33:49;;;;;;;7.15;4.30;;;;;;;14.78;71.29;99174.06;4995623;28;20515;-65
2021/05/19 08:36:21;;;;;;;8.80;4.50;;;;;;;15.00;70.94;99173.50;4995481;28;20054;-65
2021/05/19 08:38:54;;;;;;;5.38;3.15;;;;;;;15.12;69.57;99175.75;4995493;28;20062;-65
2021/05/19 08:41:22;;;;;;;6.95;3.67;;;;;;;15.23;68.50;99168.59;4994306;28;20089;-64
2021/05/19 08:43:55;;;;;;;8.15;3.17;;;;;;;15.35;68.56;99169.13;4995249;28;20173;-64
2021/05/19 08:46:28;;;;;;;4.63;3.10;;;;;;;15.46;68.48;99166.25;4995330;28;20516;-64
2021/05/19 08:49:01;;;;;;;6.30;3.38;;;;;;;15.64;67.95;99170.88;4995755;28;20054;-66
2021/05/19 08:51:33;;;;;;;5.80;4.05;;;;;;;15.76;67.29;99169.66;4995449;28;20061;-64
2021/05/19 08:54:03;;;;;;;6.00;3.40;;;;;;;15.75;66.95;99181.69;4995255;28;20058;-66
2021/05/19 08:56:37;;;;;;;7.85;3.90;;;;;;;15.72;66.79;99181.75;4994976;28;20132;-64
2021/05/19 08:59:10;;;;;;;6.07;3.38;;;;;;;15.61;66.28;99178.69;4995093;28;20076;-64
2021/05/19 09:01:45;;;;;;;5.22;3.33;;;;;;;15.71;66.75;99172.38;4995031;28;20069;-65
2021/05/19 09:04:19;;;;;;;4.70;3.13;;;;;;;15.97;66.52;99175.00;4994199;28;20440;-63
2021/05/19 09:06:53;;;;;;;4.97;3.20;;;;;;;16.02;66.33;99152.53;4981057;28;20039;-63
2021/05/19 09:09:26;;;;;;;9.55;3.40;;;;;;;16.25;66.33;99166.41;4972145;28;20054;-63
2021/05/19 09:12:00;;;;;;;6.05;3.55;;;;;;;16.40;65.61;99168.50;4976143;28;20493;-64
2021/05/19 09:14:35;;;;;;;5.55;3.30;;;;;;;16.46;65.78;99168.31;4987465;28;20054;-63
2021/05/19 09:17:19;;;;;;;5.03;3.13;;;;;;;16.54;65.70;99166.34;4994631;28;20081;-63
2021/05/19 09:19:52;;;;;;;8.80;3.42;;;;;;;16.69;65.58;99168.41;4994913;28;20155;-64
2021/05/19 09:22:24;;;;;;;7.35;3.92;;;;;;;16.85;65.84;99163.56;4994699;28;20061;-63
2021/05/19 09:24:53;;;;;;;4.50;3.15;;;;;;;16.83;65.26;99167.94;4994641;28;20513;-63
2021/05/19 09:27:37;;;;;;;;;;;;;;;16.79;65.14;99154.34;4995129;28;20389;-63
2021/05/19 09:30:12;;;;;;;5.47;3.38;;;;;;;16.87;65.23;99157.47;4994462;28;19922;-63
2021/05/19 09:32:45;;;;;;;5.00;3.13;;;;;;;16.88;64.76;99156.59;4994662;28;20054;-63
2021/05/19 09:35:21;;;;;;;6.03;3.35;;;;;;;16.82;63.93;99159.34;4994611;28;20061;-62
2021/05/19 09:37:55;;;;;;;6.47;3.28;;;;;;;16.70;63.76;99162.34;4994301;28;20133;-63
2021/05/19 09:40:27;;;;;;;5.75;3.30;;;;;;;16.67;63.61;99158.19;4994292;28;20050;-63
2021/05/19 09:42:59;;;;;;;6.30;4.15;;;;;;;16.72;63.86;99155.44;4994715;28;20066;-63
2021/05/19 09:45:39;;;;;;;5.72;3.28;;;;;;;16.71;63.44;99156.31;4994600;28;20409;-62
2021/05/19 09:48:15;;;;;;;6.25;3.28;;;;;;;16.77;63.33;99158.69;4994463;28;20050;-62
2021/05/19 09:50:45;;;;;;;6.03;3.45;;;;;;;16.71;63.53;99143.44;4993908;28;20059;-63
2021/05/19 09:53:18;;;;;;;7.25;3.67;;;;;;;16.69;63.64;99151.22;4994428;28;20050;-62
2021/05/19 09:56:10;;;;;;;6.75;3.17;;;;;;;16.74;63.86;99145.91;4994391;28;20149;-63
2021/05/19 09:58:42;;;;;;;5.30;3.28;;;;;;;16.83;64.35;99148.16;4973180;28;20054;-63
2021/05/19 10:01:16;;;;;;;6.88;3.28;;;;;;;16.99;63.75;99149.31;4973390;28;20143;-63
2021/05/19 10:03:48;;;;;;;7.22;2.88;;;;;;;17.12;62.83;99148.00;4972970;28;20061;-62
2021/05/19 10:06:24;;;;;;;4.43;2.47;;;;;;;17.15;61.85;99150.47;4972876;28;20088;-62
2021/05/19 10:08:56;;;;;;;4.90;2.80;;;;;;;17.31;61.29;99145.59;4973079;28;20212;-63
2021/05/19 10:11:28;;;;;;;4.63;2.70;;;;;;;17.51;61.01;99145.72;4972686;28;20122;-63
2021/05/19 10:14:03;;;;;;;4.80;2.85;;;;;;;17.64;60.84;99139.19;4973120;28;20142;-63
2021/05/19 10:16:34;;;;;;;3.90;2.55;;;;;;;17.68;59.58;99145.09;4972452;28;20063;-63
2021/05/19 10:19:07;;;;;;;3.97;2.53;;;;;;;17.71;59.33;99139.81;4973049;28;20075;-63
2021/05/19 10:21:39;;;;;;;3.47;2.38;;;;;;;17.86;59.20;99139.22;4972728;28;20054;-64
2021/05/19 10:24:11;;;;;;;4.57;2.42;;;;;;;17.99;59.37;99130.09;4972818;28;20065;-63
2021/05/19 10:27:02;;;;;;;5.22;2.78;;;;;;;18.02;59.02;99128.22;4972674;28;20062;-63
2021/05/19 10:29:52;;;;;;;5.55;3.28;;;;;;;18.06;59.36;99132.38;4982868;28;20062;-63
2021/05/19 10:32:37;;;;;;;4.38;2.47;;;;;;;18.06;58.10;99123.78;4994126;28;20055;-63
2021/05/19 10:35:10;;;;;;;4.80;2.97;;;;;;;17.93;56.54;99126.00;4993991;28;20062;-63
2021/05/19 10:37:46;;;;;;;6.78;2.90;;;;;;;17.86;56.51;99118.56;4993768;28;20050;-63
2021/05/19 10:40:28;;;;;;;5.53;2.60;;;;;;;17.90;55.86;99117.56;4993696;28;20050;-63
2021/05/19 10:43:03;;;;;;;5.65;2.63;;;;;;;18.10;55.34;99117.59;4993909;28;20416;-64
2021/05/19 10:45:51;;;;;;;5.00;3.00;;;;;;;18.33;54.86;99120.06;4993968;28;20062;-63
2021/05/19 10:48:32;;;;;;;6.07;2.47;;;;;;;18.58;54.62;99115.63;4993891;28;20121;-63
2021/05/19 10:51:29;;;;;;;3.95;2.50;;;;;;;18.90;53.26;99110.81;4993542;28;20520;-63
2021/05/19 10:59:24;;;;;;;3.65;2.20;;;;;;;18.92;53.30;99106.41;4993741;28;20057;-63
2021/05/19 11:01:57;;;;;;;4.20;2.57;;;;;;;19.08;53.32;99094.47;4993719;28;20046;-62
2021/05/19 11:04:30;;;;;;;3.72;2.13;;;;;;;19.01;53.08;99098.25;4995929;28;20407;-63
2021/05/19 11:07:09;;;;;;;5.80;2.40;;;;;;;18.85;53.06;99092.06;4997369;28;20404;-63
2021/05/19 11:09:41;;;;;;;3.42;2.30;;;;;;;19.07;53.06;99097.97;4997301;28;20065;-63
2021/05/19 11:12:38;;;;;;;3.78;2.00;;;;;;;19.36;52.92;99097.56;4997218;28;20412;-63
2021/05/19 11:15:31;;;;;;;4.30;2.35;;;;;;;19.88;53.47;99099.38;4997301;28;20042;-63
2021/05/19 11:18:20;;;;;;;3.10;2.00;;;;;;;20.13;52.66;99036.00;4997064;28;20419;-63
2021/05/19 11:20:52;;;;;;;4.50;2.10;;;;;;;20.46;49.11;99086.19;4997129;28;20062;-63
2021/05/19 11:23:22;;;;;;;5.05;2.20;;;;;;;20.63;49.27;99086.19;4979630;28;20077;-64
2021/05/19 11:26:11;;;;;;;4.68;2.08;;;;;;;20.73;49.24;99076.19;4997206;28;20129;-63
2021/05/19 11:28:45;;;;;;;5.07;2.03;;;;;;;20.90;49.21;99076.97;4995815;28;20073;-63
2021/05/19 11:31:18;;;;;;;3.53;2.03;;;;;;;20.82;48.31;99073.09;4996837;28;20400;-64
2021/05/19 11:33:51;;;;;;;3.42;1.98;;;;;;;20.62;48.20;99079.31;4996782;28;20515;-63
2021/05/19 11:36:33;;;;;;;5.00;2.30;;;;;;;20.66;46.44;99078.22;4997009;28;20404;-62
2021/05/19 11:39:39;;;;;;;2.90;1.88;;;;;;;20.61;45.28;99080.25;4996731;28;20054;-63
2021/05/19 11:42:41;;;;;;;3.22;2.10;;;;;;;20.72;45.70;99070.16;4996897;28;20488;-63
2021/05/19 11:45:13;;;;;;;3.33;2.00;;;;;;;20.63;46.50;99065.44;4996614;28;20485;-63
2021/05/19 11:47:46;;;;;;;4.85;1.98;;;;;;;20.51;45.47;99068.66;4996547;28;20058;-63
2021/05/19 11:50:22;;;;;;;4.55;2.60;;;;;;;20.00;45.10;99075.47;4996207;28;20054;-63
2021/05/19 11:52:56;;;;;;;4.18;2.10;;;;;;;19.80;45.77;99075.59;4992849;28;20105;-62
2021/05/19 11:55:34;;;;;;;5.82;1.90;;;;;;;19.63;45.91;99069.53;4977200;28;20054;-64
2021/05/19 11:58:09;;;;;;;2.95;1.80;;;;;;;19.37;45.94;99070.75;4976737;28;20050;-64
2021/05/19 12:00:40;;;;;;;3.40;2.05;;;;;;;19.25;46.67;99066.09;4977376;28;20093;-63
2021/05/19 12:03:14;;;;;;;4.40;2.10;;;;;;;19.10;46.40;99061.63;4976858;28;20461;-64
2021/05/19 12:05:52;;;;;;;4.32;1.80;;;;;;;18.95;46.42;99057.13;4976749;28;20382;-64
2021/05/19 12:08:23;;;;;;;3.70;2.00;;;;;;;18.93;47.42;99058.97;4976740;28;20057;-63
2021/05/19 12:11:06;;;;;;;2.67;1.55;;;;;;;18.87;46.87;99064.38;4976489;28;20059;-64